createdAt,value
2022-11-05T00:02:30.656Z,6.47
2022-11-05T00:05:15.942Z,6.30
2022-11-05T00:08:06.217Z,6.80
2022-11-05T00:10:38.077Z,7.13
2022-11-05T00:13:26.029Z,7.53
2022-11-05T00:16:11.661Z,8.27
2022-11-05T00:18:39.632Z,7.22
2022-11-05T00:21:27.907Z,7.38
2022-11-05T00:24:14.538Z,7.57
2022-11-05T00:26:42.445Z,7.25
2022-11-05T00:29:10.412Z,7.70
2022-11-05T00:31:38.041Z,6.85
2022-11-05T00:34:05.707Z,7.55
2022-11-05T00:36:33.368Z,7.05
2022-11-05T00:39:02.645Z,7.13
2022-11-05T00:41:30.574Z,8.10
2022-11-05T00:44:16.062Z,8.40
2022-11-05T00:46:43.738Z,6.95
2022-11-05T00:49:29.113Z,7.38
2022-11-05T00:52:16.995Z,6.97
2022-11-05T00:54:46.043Z,5.90
2022-11-05T00:57:13.739Z,7.15
2022-11-05T00:59:41.514Z,7.15
2022-11-05T01:02:09.261Z,5.43
2022-11-05T01:04:37.042Z,6.97
2022-11-05T01:07:04.732Z,6.20
2022-11-05T01:09:33.262Z,6.57
2022-11-05T01:12:02.252Z,7.35
2022-11-05T01:14:29.963Z,7.35
2022-11-05T01:16:57.654Z,6.88
2022-11-05T01:19:25.361Z,7.18
2022-11-05T01:21:53.008Z,6.30
2022-11-05T01:24:20.675Z,6.38
2022-11-05T01:26:48.542Z,6.53
2022-11-05T01:29:20.172Z,7.25
2022-11-05T01:31:48.102Z,5.93
2022-11-05T01:34:15.866Z,6.43
2022-11-05T01:36:43.521Z,6.45
2022-11-05T01:39:11.149Z,5.88
2022-11-05T01:41:38.809Z,5.03
2022-11-05T01:44:06.889Z,6.35
2022-11-05T01:46:40.749Z,5.63
2022-11-05T01:49:17.218Z,5.90
2022-11-05T01:51:47.045Z,5.82
2022-11-05T01:54:18.809Z,5.15
2022-11-05T01:56:51.245Z,4.82
2022-11-05T01:59:23.266Z,5.15
2022-11-05T02:01:53.007Z,5.45
2022-11-05T02:04:28.643Z,4.82
2022-11-05T02:06:56.827Z,6.38
2022-11-05T02:09:30.425Z,5.55
2022-11-05T02:11:59.221Z,4.60
2022-11-05T02:14:27.095Z,4.60
2022-11-05T02:17:02.326Z,4.72
2022-11-05T02:20:02.317Z,4.22
2022-11-05T02:23:00.868Z,4.32
2022-11-05T02:26:14.359Z,5.03
2022-11-05T02:29:09.771Z,5.20
2022-11-05T02:31:48.407Z,4.80
2022-11-05T02:34:24.603Z,4.35
2022-11-05T02:37:01.224Z,3.67
2022-11-05T02:39:41.413Z,4.10
2022-11-05T02:42:17.364Z,4.78
2022-11-05T02:44:53.864Z,4.13
2022-11-05T02:47:29.399Z,4.47
2022-11-05T02:50:08.166Z,3.30
2022-11-05T02:52:43.231Z,5.28
2022-11-05T02:55:20.007Z,3.88
2022-11-05T02:57:48.635Z,4.47
2022-11-05T03:00:41.906Z,4.50
2022-11-05T03:03:16.684Z,2.83
2022-11-05T03:05:51.878Z,3.55
2022-11-05T03:08:31.815Z,3.15
2022-11-05T03:11:06.114Z,4.00
2022-11-05T03:13:44.024Z,3.45
2022-11-05T03:16:18.928Z,3.63
2022-11-05T03:18:59.185Z,4.38
2022-11-05T03:21:36.600Z,3.95
2022-11-05T03:24:11.261Z,4.03
2022-11-05T03:26:44.381Z,3.15
2022-11-05T03:29:20.734Z,3.45
2022-11-05T03:31:50.951Z,2.72
2022-11-05T03:34:25.964Z,3.15
2022-11-05T03:36:57.186Z,2.92
2022-11-05T03:39:32.505Z,3.53
2022-11-05T03:42:02.138Z,3.10
2022-11-05T03:44:33.636Z,2.25
2022-11-05T03:47:04.637Z,3.22
2022-11-05T03:49:39.994Z,2.58
2022-11-05T03:52:12.088Z,3.55
2022-11-05T03:54:39.887Z,2.92
2022-11-05T03:57:11.747Z,3.03
2022-11-05T03:59:42.898Z,3.13
2022-11-05T04:02:11.280Z,2.97
2022-11-05T04:04:40.968Z,2.50
2022-11-05T04:07:27.968Z,3.05
2022-11-05T04:10:13.125Z,2.95
2022-11-05T04:13:10.360Z,2.97
2022-11-05T04:15:52.269Z,2.30
2022-11-05T04:18:19.962Z,2.33
2022-11-05T04:21:08.961Z,2.33
2022-11-05T04:24:09.081Z,2.40
2022-11-05T04:26:37.517Z,2.25
2022-11-05T04:29:23.409Z,2.38
2022-11-05T04:31:51.586Z,1.90
2022-11-05T04:34:21.891Z,3.40
2022-11-05T04:36:51.973Z,2.25
2022-11-05T04:39:21.065Z,2.25
2022-11-05T04:41:48.942Z,1.75
2022-11-05T04:44:17.302Z,1.90
2022-11-05T04:46:45.051Z,2.25
2022-11-05T04:49:12.768Z,2.17
2022-11-05T04:51:40.379Z,2.42
2022-11-05T04:54:09.412Z,1.95
2022-11-05T04:56:37.124Z,2.50
2022-11-05T04:59:05.158Z,2.10
2022-11-05T05:01:32.896Z,1.95
2022-11-05T05:04:01.142Z,1.58
2022-11-05T05:06:28.936Z,1.55
2022-11-05T05:08:56.967Z,1.88
2022-11-05T05:11:26.004Z,2.58
2022-11-05T05:13:53.728Z,1.95
2022-11-05T05:16:23.386Z,2.00
2022-11-05T05:18:52.140Z,1.98
2022-11-05T05:21:39.123Z,2.13
2022-11-05T05:24:09.076Z,2.20
2022-11-05T05:26:39.145Z,2.03
2022-11-05T05:29:07.780Z,2.05
2022-11-05T05:31:35.659Z,1.55
2022-11-05T05:34:03.695Z,2.03
2022-11-05T05:36:32.163Z,1.27
2022-11-05T05:38:59.986Z,1.80
2022-11-05T05:41:27.673Z,1.50
2022-11-05T05:43:56.688Z,1.55
2022-11-05T05:46:24.403Z,1.75
2022-11-05T05:48:53.096Z,2.25
2022-11-05T05:51:20.928Z,1.90
2022-11-05T05:53:48.750Z,2.35
2022-11-05T05:56:19.280Z,1.40
2022-11-05T05:58:47.628Z,1.67
2022-11-05T06:01:19.734Z,1.70
2022-11-05T06:03:48.248Z,1.63
2022-11-05T06:06:19.541Z,1.83
2022-11-05T06:08:47.417Z,1.67
2022-11-05T06:11:15.174Z,1.33
2022-11-05T06:13:42.929Z,1.65
2022-11-05T06:16:11.993Z,1.75
2022-11-05T06:18:41.144Z,2.30
2022-11-05T06:21:10.725Z,1.90
2022-11-05T06:23:40.102Z,1.83
2022-11-05T06:26:10.034Z,3.40
2022-11-05T06:28:38.172Z,1.50
2022-11-05T06:31:06.813Z,2.00
2022-11-05T06:33:34.487Z,1.85
2022-11-05T06:36:05.214Z,3.05
2022-11-05T06:38:34.171Z,1.80
2022-11-05T06:41:07.229Z,1.60
2022-11-05T06:43:37.789Z,2.22
2022-11-05T06:46:06.121Z,2.03
2022-11-05T06:48:34.082Z,1.98
2022-11-05T06:51:03.287Z,1.75
2022-11-05T06:53:32.227Z,1.95
2022-11-05T06:56:03.121Z,1.55
2022-11-05T06:58:31.851Z,2.60
2022-11-05T07:01:03.367Z,2.00
2022-11-05T07:03:31.701Z,2.17
2022-11-05T07:06:00.941Z,1.98
2022-11-05T07:08:32.346Z,2.38
2022-11-05T07:11:00.537Z,2.35
2022-11-05T07:13:28.702Z,2.35
2022-11-05T07:15:56.847Z,2.08
2022-11-05T07:18:24.879Z,3.05
2022-11-05T07:20:52.560Z,1.73
2022-11-05T07:23:20.193Z,3.33
2022-11-05T07:25:49.238Z,2.60
2022-11-05T07:28:16.929Z,2.75
2022-11-05T07:30:44.694Z,2.35
2022-11-05T07:33:13.210Z,2.50
2022-11-05T07:35:41.176Z,2.10
2022-11-05T07:38:09.320Z,2.88
2022-11-05T07:40:37.006Z,2.25
2022-11-05T07:43:06.089Z,4.00
2022-11-05T07:45:33.845Z,2.45
2022-11-05T07:48:03.523Z,2.72
2022-11-05T07:50:33.067Z,3.03
2022-11-05T07:53:02.192Z,3.25
2022-11-05T07:55:30.526Z,3.38
2022-11-05T07:57:58.416Z,2.55
2022-11-05T08:00:28.871Z,2.75
2022-11-05T08:03:07.415Z,3.25
2022-11-05T08:05:37.488Z,3.10
2022-11-05T08:08:06.475Z,3.10
2022-11-05T08:10:34.882Z,3.03
2022-11-05T08:13:03.011Z,2.92
2022-11-05T08:15:32.500Z,3.25
2022-11-05T08:18:00.598Z,2.45
2022-11-05T08:20:28.536Z,2.95
2022-11-05T08:22:56.832Z,3.05
2022-11-05T08:25:25.393Z,2.28
2022-11-05T08:27:56.915Z,2.95
2022-11-05T08:30:24.836Z,2.60
2022-11-05T08:32:57.699Z,3.50
2022-11-05T08:35:26.031Z,2.80
2022-11-05T08:37:57.641Z,2.67
2022-11-05T08:40:25.794Z,2.55
2022-11-05T08:42:53.556Z,2.63
2022-11-05T08:45:22.162Z,3.50
2022-11-05T08:47:49.887Z,3.60
2022-11-05T08:50:18.982Z,3.35
2022-11-05T08:52:46.725Z,3.33
2022-11-05T08:55:18.710Z,4.45
2022-11-05T08:57:49.419Z,3.88
2022-11-05T09:00:17.610Z,3.53
2022-11-05T09:02:45.541Z,4.57
2022-11-05T09:05:13.545Z,2.85
2022-11-05T09:07:43.959Z,2.33
2022-11-05T09:10:11.656Z,2.30
2022-11-05T09:12:39.657Z,2.47
2022-11-05T09:15:09.141Z,1.58
2022-11-05T09:17:36.953Z,2.53
2022-11-05T09:20:06.976Z,2.75
2022-11-05T09:22:37.963Z,1.90
2022-11-05T09:25:11.226Z,2.58
2022-11-05T09:27:39.027Z,1.88
2022-11-05T09:30:07.734Z,2.60
2022-11-05T09:32:35.388Z,1.73
2022-11-05T09:35:03.029Z,2.78
2022-11-05T09:37:30.754Z,1.75
2022-11-05T09:39:58.575Z,2.53
2022-11-05T09:42:32.523Z,3.05
2022-11-05T09:45:03.902Z,3.63
2022-11-05T09:47:35.886Z,2.85
2022-11-05T09:50:10.057Z,1.92
2022-11-05T09:52:37.831Z,3.13
2022-11-05T09:55:16.674Z,3.15
2022-11-05T09:57:53.393Z,3.20
2022-11-05T10:00:22.026Z,2.88
2022-11-05T10:02:53.099Z,2.45
2022-11-05T10:05:25.010Z,2.63
2022-11-05T10:07:58.540Z,2.38
2022-11-05T10:10:39.416Z,3.22
2022-11-05T10:13:23.806Z,3.58
2022-11-05T10:16:01.206Z,3.72
2022-11-05T10:18:34.002Z,7.20
2022-11-05T10:21:02.611Z,5.45
2022-11-05T10:23:31.080Z,4.88
2022-11-05T10:26:03.573Z,4.35
2022-11-05T10:28:34.971Z,5.32
2022-11-05T10:31:05.709Z,4.68
2022-11-05T10:33:40.357Z,5.47
2022-11-05T10:36:12.579Z,3.67
2022-11-05T10:38:40.371Z,3.10
2022-11-05T10:41:23.327Z,5.68
2022-11-05T10:43:57.083Z,5.35
2022-11-05T10:46:33.176Z,2.75
2022-11-05T10:49:12.116Z,2.80
2022-11-05T10:51:40.143Z,2.35
2022-11-05T10:54:19.016Z,2.83
2022-11-05T10:56:46.866Z,4.00
2022-11-05T10:59:23.784Z,4.10
2022-11-05T11:01:57.949Z,6.05
2022-11-05T11:04:30.359Z,4.00
2022-11-05T11:07:01.407Z,3.50
2022-11-05T11:09:31.743Z,4.10
2022-11-05T11:12:06.809Z,5.05
2022-11-05T11:14:35.977Z,4.53
2022-11-05T11:17:28.023Z,4.78
2022-11-05T11:20:21.985Z,5.57
2022-11-05T11:23:01.271Z,5.22
2022-11-05T11:25:31.097Z,5.32
2022-11-05T11:28:04.229Z,5.13
2022-11-05T11:30:33.746Z,4.32
2022-11-05T11:33:09.068Z,5.60
2022-11-05T11:35:39.722Z,4.75
2022-11-05T11:38:08.442Z,4.25
2022-11-05T11:40:38.803Z,4.55
2022-11-05T11:43:16.120Z,4.15
2022-11-05T11:45:49.821Z,4.93
2022-11-05T11:48:20.146Z,4.75
2022-11-05T11:50:50.040Z,4.47
2022-11-05T11:53:35.646Z,3.75
2022-11-05T11:56:06.926Z,5.18
2022-11-05T11:58:41.191Z,4.32
2022-11-05T12:01:35.498Z,3.60
2022-11-05T12:04:15.561Z,4.53
2022-11-05T12:06:52.216Z,3.58
2022-11-05T12:09:27.121Z,4.70
2022-11-05T12:12:03.437Z,4.40
2022-11-05T12:14:46.069Z,4.25
2022-11-05T12:17:31.740Z,3.00
2022-11-05T12:20:18.287Z,4.85
2022-11-05T12:23:11.628Z,4.95
2022-11-05T12:25:46.406Z,3.78
2022-11-05T12:28:30.488Z,4.30
2022-11-05T12:31:12.663Z,4.07
2022-11-05T12:33:52.269Z,4.85
2022-11-05T12:36:33.695Z,5.95
2022-11-05T12:39:22.297Z,5.55
2022-11-05T12:41:56.205Z,5.10
2022-11-05T12:45:01.445Z,5.30
2022-11-05T12:47:47.753Z,5.53
2022-11-05T12:50:23.753Z,4.70
2022-11-05T12:53:20.936Z,4.65
2022-11-05T12:55:50.533Z,5.35
2022-11-05T12:58:23.310Z,4.07
2022-11-05T13:00:57.347Z,5.22
2022-11-05T13:03:34.917Z,4.95
2022-11-05T13:06:08.599Z,6.45
2022-11-05T13:08:42.178Z,6.15
2022-11-05T13:11:18.067Z,5.50
2022-11-05T13:13:52.684Z,5.40
2022-11-05T13:16:26.828Z,5.68
2022-11-05T13:19:00.004Z,5.47
2022-11-05T13:21:30.519Z,4.63
2022-11-05T13:24:04.147Z,5.00
2022-11-05T13:26:38.565Z,4.93
2022-11-05T13:29:09.201Z,4.75
2022-11-05T13:31:41.219Z,4.13
2022-11-05T13:34:12.192Z,4.32
2022-11-05T13:37:07.309Z,4.82
2022-11-05T13:39:39.280Z,4.75
2022-11-05T13:42:37.194Z,4.90
2022-11-05T13:45:43.410Z,4.90
2022-11-05T13:48:39.218Z,4.38
2022-11-05T13:51:44.941Z,5.10
2022-11-05T13:54:42.209Z,4.18
2022-11-05T13:57:45.313Z,4.78
2022-11-05T14:00:19.044Z,4.50
2022-11-05T14:02:51.454Z,4.18
2022-11-05T14:05:30.484Z,3.92
2022-11-05T14:08:00.732Z,5.03
2022-11-05T14:10:37.786Z,2.85
2022-11-05T14:13:20.409Z,4.40
2022-11-05T14:16:03.999Z,3.65
2022-11-05T14:18:47.876Z,3.78
2022-11-05T14:21:46.190Z,3.20
2022-11-05T14:24:27.463Z,4.72
2022-11-05T14:27:28.684Z,3.63
2022-11-05T14:29:58.064Z,3.60
2022-11-05T14:32:28.811Z,3.90
2022-11-05T14:35:03.931Z,3.20
2022-11-05T14:37:34.781Z,3.10
2022-11-05T14:40:28.059Z,3.85
2022-11-05T14:42:57.930Z,2.95
2022-11-05T14:45:31.079Z,3.33
2022-11-05T14:48:00.689Z,2.83
2022-11-05T14:50:35.723Z,3.28
2022-11-05T14:53:25.452Z,3.15
2022-11-05T14:56:00.809Z,3.63
2022-11-05T14:58:32.580Z,2.90
2022-11-05T15:01:03.211Z,4.38
2022-11-05T15:03:34.811Z,4.40
2022-11-05T15:06:21.381Z,4.10
2022-11-05T15:08:59.271Z,4.15
2022-11-05T15:11:34.057Z,3.50
2022-11-05T15:14:06.287Z,4.10
2022-11-05T15:16:37.807Z,3.65
2022-11-05T15:19:06.251Z,4.85
2022-11-05T15:21:37.714Z,5.07
2022-11-05T15:24:10.599Z,4.35
2022-11-05T15:26:46.402Z,4.00
2022-11-05T15:29:19.340Z,5.47
2022-11-05T15:31:49.377Z,4.20
2022-11-05T15:34:20.752Z,4.13
2022-11-05T15:36:51.715Z,5.53
2022-11-05T15:39:30.168Z,5.10
2022-11-05T15:41:59.274Z,5.22
2022-11-05T15:44:29.187Z,5.22
2022-11-05T15:47:15.798Z,6.05
2022-11-05T15:49:46.618Z,4.30
2022-11-05T15:52:16.507Z,4.63
2022-11-05T15:54:45.242Z,4.70
2022-11-05T15:57:25.861Z,5.63
2022-11-05T15:59:53.801Z,5.70
2022-11-05T16:02:30.642Z,6.43
2022-11-05T16:04:59.623Z,6.10
2022-11-05T16:07:28.811Z,4.75
2022-11-05T16:09:58.787Z,4.68
2022-11-05T16:12:36.805Z,3.35
2022-11-05T16:15:19.899Z,3.45
2022-11-05T16:17:52.617Z,3.72
2022-11-05T16:20:24.100Z,3.88
2022-11-05T16:22:54.732Z,3.72
2022-11-05T16:25:25.002Z,4.20
2022-11-05T16:27:52.867Z,3.85
2022-11-05T16:30:21.265Z,4.00
2022-11-05T16:32:51.163Z,3.55
2022-11-05T16:35:21.169Z,3.60
2022-11-05T16:37:52.074Z,3.88
2022-11-05T16:40:23.014Z,4.40
2022-11-05T16:42:51.916Z,3.08
2022-11-05T16:45:21.701Z,3.70
2022-11-05T16:47:50.755Z,4.68
2022-11-05T16:50:24.453Z,4.20
2022-11-05T16:52:52.471Z,3.60
2022-11-05T16:55:21.129Z,2.92
2022-11-05T16:57:51.963Z,3.38
2022-11-05T17:00:21.164Z,3.25
2022-11-05T17:02:50.692Z,3.50
2022-11-05T17:05:25.321Z,4.30
2022-11-05T17:07:53.393Z,3.65
2022-11-05T17:10:23.069Z,3.33
2022-11-05T17:12:51.582Z,3.47
2022-11-05T17:15:22.526Z,3.72
2022-11-05T17:17:52.628Z,3.03
2022-11-05T17:20:28.360Z,2.78
2022-11-05T17:22:57.279Z,3.40
2022-11-05T17:25:26.208Z,3.70
2022-11-05T17:27:54.495Z,3.97
2022-11-05T17:30:22.253Z,3.15
2022-11-05T17:32:51.961Z,4.32
2022-11-05T17:35:20.143Z,2.92
2022-11-05T17:37:47.904Z,3.78
2022-11-05T17:40:17.478Z,4.38
2022-11-05T17:42:45.578Z,3.45
2022-11-05T17:45:14.267Z,3.95
2022-11-05T17:47:42.502Z,4.53
2022-11-05T17:50:16.326Z,3.65
2022-11-05T17:52:44.757Z,4.10
2022-11-05T17:55:17.524Z,3.97
2022-11-05T17:57:46.933Z,2.88
2022-11-05T18:00:17.013Z,3.78
2022-11-05T18:02:46.025Z,3.65
2022-11-05T18:05:15.448Z,3.88
2022-11-05T18:07:43.770Z,3.42
2022-11-05T18:10:11.927Z,3.72
2022-11-05T18:12:40.184Z,3.97
2022-11-05T18:15:09.219Z,4.13
2022-11-05T18:17:37.717Z,2.72
2022-11-05T18:20:11.700Z,3.05
2022-11-05T18:22:46.425Z,4.68
2022-11-05T18:25:14.542Z,3.60
2022-11-05T18:27:42.957Z,3.72
2022-11-05T18:30:13.902Z,3.70
2022-11-05T18:32:41.713Z,4.38
2022-11-05T18:35:10.350Z,4.35
2022-11-05T18:37:38.670Z,5.03
2022-11-05T18:40:08.962Z,3.35
2022-11-05T18:42:36.750Z,4.45
2022-11-05T18:45:04.765Z,4.43
2022-11-05T18:47:33.579Z,4.65
2022-11-05T18:50:04.127Z,3.92
2022-11-05T18:52:33.369Z,4.82
2022-11-05T18:55:01.245Z,3.85
2022-11-05T18:57:30.424Z,4.15
2022-11-05T18:59:58.309Z,4.25
2022-11-05T19:02:26.340Z,5.65
2022-11-05T19:05:27.322Z,5.15
2022-11-05T19:07:42.231Z,5.43
2022-11-05T19:10:11.757Z,5.90
2022-11-05T19:12:41.267Z,4.30
2022-11-05T19:15:10.843Z,4.50
2022-11-05T19:17:40.609Z,4.90
2022-11-05T19:20:09.504Z,4.50
2022-11-05T19:22:37.521Z,3.88
2022-11-05T19:25:06.217Z,4.68
2022-11-05T19:27:36.255Z,4.07
2022-11-05T19:30:06.275Z,3.95
2022-11-05T19:32:33.924Z,4.47
2022-11-05T19:35:01.768Z,3.55
2022-11-05T19:37:31.878Z,4.05
2022-11-05T19:39:59.608Z,3.88
2022-11-05T19:42:27.897Z,3.85
2022-11-05T19:44:55.769Z,4.82
2022-11-05T19:47:24.879Z,4.05
2022-11-05T19:49:52.652Z,4.13
2022-11-05T19:52:20.431Z,3.65
2022-11-05T19:54:48.172Z,4.32
2022-11-05T19:57:15.939Z,3.55
2022-11-05T19:59:43.897Z,3.92
2022-11-05T20:02:15.977Z,5.15
2022-11-05T20:04:45.470Z,4.10
2022-11-05T20:07:13.231Z,4.50
2022-11-05T20:09:41.206Z,4.50
2022-11-05T20:12:09.003Z,4.22
2022-11-05T20:14:36.823Z,4.18
2022-11-05T20:17:04.752Z,3.15
2022-11-05T20:19:33.472Z,3.78
2022-11-05T20:22:02.842Z,4.57
2022-11-05T20:24:31.169Z,3.72
2022-11-05T20:26:58.827Z,4.15
2022-11-05T20:29:33.929Z,3.95
2022-11-05T20:32:03.760Z,3.85
2022-11-05T20:34:33.091Z,4.13
2022-11-05T20:37:02.474Z,3.97
2022-11-05T20:39:30.300Z,4.38
2022-11-05T20:42:00.323Z,4.50
2022-11-05T20:44:28.240Z,6.15
2022-11-05T20:46:56.841Z,5.05
2022-11-05T20:49:25.787Z,4.43
2022-11-05T20:51:53.866Z,3.92
2022-11-05T20:54:23.564Z,4.65
2022-11-05T20:56:51.661Z,3.92
2022-11-05T20:59:19.404Z,3.70
2022-11-05T21:01:47.724Z,4.22
2022-11-05T21:04:15.669Z,3.40
2022-11-05T21:06:43.441Z,3.63
2022-11-05T21:09:11.230Z,4.43
2022-11-05T21:11:57.895Z,3.28
2022-11-05T21:14:25.726Z,4.40
2022-11-05T21:16:53.496Z,3.97
2022-11-05T21:19:23.786Z,3.20
2022-11-05T21:21:51.917Z,3.53
2022-11-05T21:24:19.633Z,3.28
2022-11-05T21:26:49.921Z,3.10
2022-11-05T21:29:18.040Z,4.53
2022-11-05T21:31:46.098Z,3.60
2022-11-05T21:34:13.909Z,3.28
2022-11-05T21:36:41.869Z,3.45
2022-11-05T21:39:13.446Z,2.95
2022-11-05T21:41:42.487Z,2.88
2022-11-05T21:44:11.629Z,3.40
2022-11-05T21:46:41.556Z,3.90
2022-11-05T21:49:09.434Z,3.90
2022-11-05T21:51:54.919Z,3.95
2022-11-05T21:54:40.566Z,2.85
2022-11-05T21:57:32.529Z,3.00
2022-11-05T22:00:03.919Z,3.15
2022-11-05T22:02:31.814Z,3.15
2022-11-05T22:05:00.234Z,2.97
2022-11-05T22:07:30.238Z,3.13
2022-11-05T22:09:58.482Z,3.08
2022-11-05T22:12:26.729Z,3.00
2022-11-05T22:14:54.895Z,2.85
2022-11-05T22:17:24.805Z,2.35
2022-11-05T22:19:52.855Z,2.33
2022-11-05T22:22:20.656Z,2.45
2022-11-05T22:24:48.449Z,2.53
2022-11-05T22:27:20.445Z,2.85
2022-11-05T22:29:48.384Z,2.90
2022-11-05T22:32:16.922Z,2.58
2022-11-05T22:34:45.948Z,2.63
2022-11-05T22:37:13.910Z,4.07
2022-11-05T22:39:41.608Z,2.88
2022-11-05T22:42:09.404Z,2.10
2022-11-05T22:44:37.792Z,2.55
2022-11-05T22:47:06.357Z,2.28
2022-11-05T22:49:34.997Z,2.00
2022-11-05T22:52:04.082Z,2.40
2022-11-05T22:54:37.910Z,2.42
2022-11-05T22:57:07.208Z,1.95
2022-11-05T22:59:35.085Z,2.05
2022-11-05T23:02:09.280Z,2.17
2022-11-05T23:04:37.861Z,2.53
2022-11-05T23:07:27.688Z,2.45
2022-11-05T23:10:14.268Z,2.40
2022-11-05T23:12:43.537Z,2.60
2022-11-05T23:15:33.190Z,1.67
2022-11-05T23:18:19.635Z,2.08
2022-11-05T23:21:04.934Z,1.98
2022-11-05T23:23:51.455Z,2.00
2022-11-05T23:26:36.677Z,1.80
2022-11-05T23:29:04.526Z,2.10
2022-11-05T23:31:49.915Z,2.10
2022-11-05T23:34:17.623Z,3.17
2022-11-05T23:37:03.148Z,2.17
2022-11-05T23:39:32.195Z,2.45
2022-11-05T23:42:17.670Z,2.00
2022-11-05T23:45:02.226Z,1.90
2022-11-05T23:47:56.462Z,2.20
2022-11-05T23:50:24.959Z,1.70
2022-11-05T23:52:53.188Z,2.13
2022-11-05T23:55:23.069Z,2.55
2022-11-05T23:57:51.554Z,1.63
